CheckWX is a tool to help pilots better visualize weather data.  It is not intended as a substitute for an official pre-flight weather briefing.

16:55:00 UTC

OPIS TAF
Islamabad International Airport
Islamabad, Pakistan
TAF OPIS 180900Z 1812/1918 30010KT 6000 NSC PROB30 TEMPO 1812/1816 09020G30KT 3000 TSRA FEW030CB SCT040 BKN100 TEMPO 1905/1910 27015G25KT 7000 FEW040 SCT100

Jun-18@
12:00 UTC

Jun-18 @ 12:00 UTC

Jun-19@
18:00 UTC

Jun-19 @ 18:00 UTC

TAF OPIS 180900Z 1812/1918 30010KT 6000 NSC
Wind
  • 300° at 10 KTS
Cloud Levels
  • No significant clouds

Jun-18@
12:00 UTC

Jun-18 @ 12:00 UTC

Jun-18@
16:00 UTC

Jun-18 @ 16:00 UTC

PROB30 TEMPO 1812/1816 09020G30KT 3000 TSRA FEW030CB SCT040 BKN100

Expired

Wind
  • 090° at 20 KTS
  • {Gusting to 30 KTS
Conditions
Thunderstorm, Rain
Cloud Levels
  • Few at 3,000' AGL
  • Scattered at 4,000' AGL
  • Broken at 10,000' AGL

Jun-19@
05:00 UTC

Jun-19 @ 05:00 UTC

Jun-19@
10:00 UTC

Jun-19 @ 10:00 UTC

TEMPO 1905/1910 27015G25KT 7000 FEW040 SCT100

Temporary

Temporary Changes expected for less than half the time period

Wind
  • 270° at 15 KTS
  • {Gusting to 25 KTS
Cloud Levels
  • Few at 4,000' AGL
  • Scattered at 10,000' AGL